Hovedside
METAR-TAF:

METAR-TAF

Lufthavner :

Røst lufthavn

Røst, Norge

breddegrad: 67-31N, lengdegrad: 012-06E, høyde over havet: 4 m

Gjeldene værobservasjon

Denne rapporten ble laget for 4 timer og 4 minutter siden, klokken 06:50 UTC
Vind 24 kt fra Sør-sørvest med vindkast opp mot 34 kt
Temperatur 10°C
Luftfuktighet 87%
Trykk 985 hPa
Sikt 10 km eller mer
Få skyer i en høyde av 1200 ft
Spredte skyer i en høyde av 1800 ft
Brutte skyer i en høyde av 2500 ft
lette regnbyger

METAR: ENRS 210650Z 21024G34KT 9999 -SHRA FEW012 SCT018 BKN025 10/08 Q0985

Tid: 12:54 (10:54 UTC)


TAF: fraværende

Værobservasjoner og værvarsel for over 4000 flyplasser (METAR- og TAF-rapporter).

Tilgjengelige stasjoner er representert av de røde og gule prikkene på kartet.

Hold musepekeren over prikken for å se navnet på stasjonen.

Klikk så for å se værobservasjoner og -varsler.

For å forandre kartet kan du klikke på den grønne knappen med svart kryss for å zoome inn, på den grønne knappen med strek for å zoome ut, eller på de grønne pilene for å se tilstøtende kart.


METAR-TAF: